Time;durP1;ratioP1;P1;durP2;ratioP2;P2;SDS_P1;SDS_P2;PMS_P1;PMS_P2;Temp;Humidity;BMP_temperature;BMP_pressure;BME280_temperature;BME280_humidity;BME280_pressure;Samples;Min_cycle;Max_cycle;Signal;HPM_P1;HPM_P2
2023/04/09 00:02:22;;;;;;;5.07;4.05;;;;;;;;;;5073169;28;20123;-83
2023/04/09 00:04:47;;;;;;;5.70;4.18;;;;;;;;;;5075010;28;20040;-83
2023/04/09 00:07:13;;;;;;;5.88;4.47;;;;;;;;;;5075210;28;20486;-83
2023/04/09 00:09:38;;;;;;;5.90;4.30;;;;;;;;;;5074738;28;20036;-82
2023/04/09 00:12:04;;;;;;;5.63;4.00;;;;;;;;;;5074719;28;20032;-83
2023/04/09 00:14:29;;;;;;;5.28;4.10;;;;;;;;;;5074445;28;20047;-83
2023/04/09 00:16:55;;;;;;;5.28;3.85;;;;;;;;;;5074264;28;20029;-82
2023/04/09 00:19:20;;;;;;;5.45;4.13;;;;;;;;;;5074537;28;20098;-82
2023/04/09 00:21:47;;;;;;;5.85;4.30;;;;;;;;;;5074170;28;20067;-83
2023/04/09 00:24:13;;;;;;;5.63;4.15;;;;;;;;;;5074369;28;20087;-82
2023/04/09 00:26:38;;;;;;;5.95;4.30;;;;;;;;;;5072659;28;20068;-83
2023/04/09 00:29:04;;;;;;;5.85;3.88;;;;;;;;;;5048468;28;20087;-83
2023/04/09 00:31:29;;;;;;;5.85;4.15;;;;;;;;;;5075332;28;20068;-82
2023/04/09 00:33:55;;;;;;;6.07;4.32;;;;;;;;;;5075465;28;20033;-83
2023/04/09 00:36:20;;;;;;;5.78;4.13;;;;;;;;;;5068332;28;20043;-83
2023/04/09 00:38:47;;;;;;;5.72;4.00;;;;;;;;;;5074076;28;20032;-83
2023/04/09 00:41:13;;;;;;;5.53;4.28;;;;;;;;;;5075448;28;20060;-83
2023/04/09 00:43:38;;;;;;;4.85;3.80;;;;;;;;;;5074612;28;20066;-84
2023/04/09 00:46:04;;;;;;;5.00;3.65;;;;;;;;;;5075586;28;20097;-83
2023/04/09 00:48:30;;;;;;;5.80;4.15;;;;;;;;;;5072257;28;20037;-83
2023/04/09 00:50:56;;;;;;;7.03;4.25;;;;;;;;;;5075212;28;20043;-82
2023/04/09 00:53:21;;;;;;;5.90;4.65;;;;;;;;;;5071083;28;20036;-83
2023/04/09 00:55:47;;;;;;;5.93;4.28;;;;;;;;;;5073599;28;20090;-83
2023/04/09 00:58:13;;;;;;;7.32;4.38;;;;;;;;;;5073948;28;20405;-83
2023/04/09 01:00:39;;;;;;;7.00;4.25;;;;;;;;;;5075283;28;20028;-83
2023/04/09 01:03:06;;;;;;;6.47;4.10;;;;;;;;;;5073101;28;20034;-84
2023/04/09 01:06:07;;;;;;;6.25;4.38;;;;;;;;;;5073754;28;20036;-83
2023/04/09 01:08:44;;;;;;;5.72;4.15;;;;;;;;;;5015242;28;20120;-83
2023/04/09 01:11:39;;;;;;;7.30;4.30;;;;;;;;;;5068064;28;20040;-83
2023/04/09 01:14:26;;;;;;;5.53;4.00;;;;;;;;;;5015576;28;20510;-84
2023/04/09 01:17:02;;;;;;;5.95;3.80;;;;;;;;;;5053185;28;20047;-83
2023/04/09 01:19:39;;;;;;;5.43;4.00;;;;;;;;;;5072806;28;20036;-83
2023/04/09 01:22:16;;;;;;;4.78;3.90;;;;;;;;;;5072481;28;20063;-82
2023/04/09 01:24:59;;;;;;;5.22;4.10;;;;;;;;;;5072733;28;20119;-83
2023/04/09 01:27:48;;;;;;;4.68;3.67;;;;;;;;;;5073979;28;20028;-83
2023/04/09 01:30:15;;;;;;;4.80;3.63;;;;;;;;;;5073294;28;20039;-83
2023/04/09 01:32:42;;;;;;;5.85;4.25;;;;;;;;;;5072027;28;20494;-82
2023/04/09 01:35:08;;;;;;;6.80;4.50;;;;;;;;;;5071524;28;20036;-83
2023/04/09 01:37:35;;;;;;;8.23;4.45;;;;;;;;;;5072255;28;20044;-83
2023/04/09 01:40:01;;;;;;;5.95;4.30;;;;;;;;;;5055642;28;20087;-83
2023/04/09 01:42:28;;;;;;;6.63;4.55;;;;;;;;;;5073700;28;20028;-83
2023/04/09 01:44:54;;;;;;;7.03;4.60;;;;;;;;;;5073678;28;20403;-82
2023/04/09 01:47:20;;;;;;;5.38;4.15;;;;;;;;;;5072175;28;20556;-82
2023/04/09 01:49:45;;;;;;;5.50;3.90;;;;;;;;;;5085909;28;20082;-83
2023/04/09 01:52:11;;;;;;;6.13;4.43;;;;;;;;;;5073461;28;20040;-83
2023/04/09 01:54:37;;;;;;;5.72;4.30;;;;;;;;;;5068164;28;20119;-84
2023/04/09 01:57:02;;;;;;;6.95;4.07;;;;;;;;;;5073075;28;20083;-83
2023/04/09 01:59:28;;;;;;;5.78;4.00;;;;;;;;;;5075685;28;20127;-82
2023/04/09 02:02:00;;;;;;;6.40;4.30;;;;;;;;;;5074572;28;20044;-83
2023/04/09 02:04:31;;;;;;;5.75;4.10;;;;;;;;;;5077244;28;20082;-83
2023/04/09 02:07:13;;;;;;;5.55;4.00;;;;;;;;;;5076578;28;20102;-83
2023/04/09 02:09:40;;;;;;;6.53;4.00;;;;;;;;;;5081738;28;20029;-83
2023/04/09 02:12:11;;;;;;;4.57;3.70;;;;;;;;;;5084479;28;20062;-82
2023/04/09 02:14:38;;;;;;;5.25;3.70;;;;;;;;;;5082693;28;20037;-82
2023/04/09 02:17:03;;;;;;;5.72;4.05;;;;;;;;;;5083461;28;20111;-82
2023/04/09 02:19:45;;;;;;;6.07;4.40;;;;;;;;;;5084290;28;20055;-82
2023/04/09 02:22:13;;;;;;;5.47;4.00;;;;;;;;;;5079299;28;20028;-83
2023/04/09 02:24:39;;;;;;;5.47;4.18;;;;;;;;;;5075419;28;20282;-82
2023/04/09 02:27:05;;;;;;;7.10;4.65;;;;;;;;;;5075339;28;20127;-82
2023/04/09 02:29:31;;;;;;;4.95;3.70;;;;;;;;;;5073735;28;20065;-82
2023/04/09 02:31:57;;;;;;;5.28;3.90;;;;;;;;;;5076955;28;20036;-82
2023/04/09 02:34:23;;;;;;;5.72;4.25;;;;;;;;;;5076307;28;20047;-83
2023/04/09 02:36:48;;;;;;;7.80;4.60;;;;;;;;;;5073840;28;20072;-83
2023/04/09 02:39:14;;;;;;;5.55;4.15;;;;;;;;;;5076390;28;20060;-83
2023/04/09 02:41:40;;;;;;;5.25;4.03;;;;;;;;;;5074717;28;20043;-82
2023/04/09 02:44:05;;;;;;;6.10;4.50;;;;;;;;;;5091077;28;20410;-82
2023/04/09 02:46:31;;;;;;;6.30;4.40;;;;;;;;;;5076262;28;20035;-83
2023/04/09 02:48:56;;;;;;;5.93;4.35;;;;;;;;;;5073222;28;20598;-83
2023/04/09 02:51:22;;;;;;;7.93;5.38;;;;;;;;;;5075075;28;20036;-83
2023/04/09 02:53:47;;;;;;;7.85;5.78;;;;;;;;;;5082250;28;20114;-83
2023/04/09 02:56:13;;;;;;;9.52;5.50;;;;;;;;;;5082697;28;20436;-83
2023/04/09 02:58:38;;;;;;;7.55;5.55;;;;;;;;;;5083042;28;20099;-83
2023/04/09 03:01:04;;;;;;;7.10;5.25;;;;;;;;;;5096860;28;20037;-82
2023/04/09 03:03:30;;;;;;;7.32;5.30;;;;;;;;;;5082384;28;20039;-82
2023/04/09 03:05:56;;;;;;;8.43;5.93;;;;;;;;;;5082582;28;20036;-83
2023/04/09 03:08:21;;;;;;;8.40;5.90;;;;;;;;;;5074697;28;20032;-83
2023/04/09 03:10:47;;;;;;;6.97;5.13;;;;;;;;;;5074974;28;20048;-83
2023/04/09 03:13:12;;;;;;;7.10;5.30;;;;;;;;;;5070976;28;20041;-83
2023/04/09 03:15:38;;;;;;;7.55;5.40;;;;;;;;;;5074842;28;20047;-83
2023/04/09 03:18:03;;;;;;;6.25;4.72;;;;;;;;;;5074478;28;20040;-83
2023/04/09 03:20:30;;;;;;;8.82;5.32;;;;;;;;;;5075687;28;20742;-83
2023/04/09 03:22:55;;;;;;;7.30;5.45;;;;;;;;;;5074263;28;20029;-83
2023/04/09 03:25:40;;;;;;;6.28;4.85;;;;;;;;;;5074289;28;20379;-82
2023/04/09 03:28:14;;;;;;;6.30;4.55;;;;;;;;;;5073796;28;20032;-83
2023/04/09 03:30:44;;;;;;;6.90;4.65;;;;;;;;;;5087718;28;20563;-83
2023/04/09 03:33:10;;;;;;;6.63;4.85;;;;;;;;;;5057361;28;20540;-83
2023/04/09 03:35:56;;;;;;;5.93;4.65;;;;;;;;;;5074275;28;20524;-83
2023/04/09 03:38:37;;;;;;;6.65;4.63;;;;;;;;;;5071167;28;20040;-82
2023/04/09 03:41:08;;;;;;;6.97;5.25;;;;;;;;;;5075417;28;20028;-83
2023/04/09 03:43:34;;;;;;;6.75;5.13;;;;;;;;;;5073511;28;20041;-83
2023/04/09 03:46:00;;;;;;;7.25;5.10;;;;;;;;;;5074142;28;20032;-83
2023/04/09 03:48:26;;;;;;;7.45;5.10;;;;;;;;;;5090210;28;20033;-83
2023/04/09 03:50:52;;;;;;;7.00;5.30;;;;;;;;;;5073129;28;20037;-83
2023/04/09 03:53:25;;;;;;;;;;;;;;;;;;5074040;28;20041;-80
2023/04/09 03:55:56;;;;;;;7.65;5.25;;;;;;;;;;5072564;28;19923;-82
2023/04/09 03:58:24;;;;;;;6.70;4.97;;;;;;;;;;5088277;28;20020;-83
2023/04/09 04:00:51;;;;;;;6.47;4.50;;;;;;;;;;5073516;28;20031;-82
2023/04/09 04:03:31;;;;;;;5.93;4.38;;;;;;;;;;5072945;28;20394;-83
2023/04/09 04:06:15;;;;;;;5.97;4.28;;;;;;;;;;5075086;28;20047;-82
2023/04/09 04:08:59;;;;;;;8.88;5.10;;;;;;;;;;5075129;28;20095;-83
2023/04/09 04:11:34;;;;;;;6.45;4.55;;;;;;;;;;5074313;28;20081;-83
2023/04/09 04:14:00;;;;;;;6.55;4.45;;;;;;;;;;5074810;28;20040;-83
2023/04/09 04:16:26;;;;;;;6.38;4.60;;;;;;;;;;5074606;28;20024;-83
2023/04/09 04:18:53;;;;;;;6.35;4.45;;;;;;;;;;5074286;28;20493;-83
2023/04/09 04:21:18;;;;;;;33.40;15.65;;;;;;;;;;5090081;28;20043;-83
2023/04/09 04:23:52;;;;;;;30.98;14.68;;;;;;;;;;5059161;28;20040;-83
2023/04/09 04:26:22;;;;;;;12.52;7.63;;;;;;;;;;5074781;28;20033;-82
2023/04/09 04:28:48;;;;;;;8.85;5.45;;;;;;;;;;5074197;28;20033;-83
2023/04/09 04:31:25;;;;;;;8.52;5.35;;;;;;;;;;5072656;28;20058;-83
2023/04/09 04:33:51;;;;;;;6.78;5.13;;;;;;;;;;5073767;28;20058;-83
2023/04/09 04:36:17;;;;;;;8.68;6.00;;;;;;;;;;5065119;28;20065;-83
2023/04/09 04:38:46;;;;;;;8.82;5.40;;;;;;;;;;5057874;28;20025;-83
2023/04/09 04:41:29;;;;;;;7.35;5.35;;;;;;;;;;5073902;28;20409;-83
2023/04/09 04:44:06;;;;;;;8.27;5.35;;;;;;;;;;5071329;28;20028;-83
2023/04/09 04:46:32;;;;;;;6.82;4.85;;;;;;;;;;5073751;28;20037;-83
2023/04/09 04:48:57;;;;;;;7.28;5.07;;;;;;;;;;5047336;28;20040;-82
2023/04/09 04:51:23;;;;;;;8.15;5.15;;;;;;;;;;5073708;28;20036;-82
2023/04/09 04:54:03;;;;;;;6.45;4.90;;;;;;;;;;5071328;28;20036;-82
2023/04/09 04:56:30;;;;;;;7.97;5.32;;;;;;;;;;5073568;28;20029;-82
2023/04/09 04:59:08;;;;;;;7.80;5.05;;;;;;;;;;5072285;28;20039;-82
2023/04/09 05:01:46;;;;;;;12.50;6.72;;;;;;;;;;5071359;28;20036;-82
2023/04/09 05:04:12;;;;;;;10.93;6.28;;;;;;;;;;5074138;28;20036;-82
2023/04/09 05:06:37;;;;;;;10.23;5.95;;;;;;;;;;5073910;28;20478;-82
2023/04/09 05:09:07;;;;;;;9.95;6.07;;;;;;;;;;5069571;28;20032;-82
2023/04/09 05:11:40;;;;;;;9.52;5.70;;;;;;;;;;5070988;28;20402;-82
2023/04/09 05:14:12;;;;;;;8.90;5.80;;;;;;;;;;5072727;28;20040;-83
2023/04/09 05:16:39;;;;;;;10.15;6.60;;;;;;;;;;5072220;28;20115;-83
2023/04/09 05:19:05;;;;;;;10.90;6.30;;;;;;;;;;5073284;28;20119;-82
2023/04/09 05:21:31;;;;;;;17.35;10.02;;;;;;;;;;5072917;28;20509;-83
2023/04/09 05:23:58;;;;;;;12.57;7.20;;;;;;;;;;5072793;28;20040;-83
2023/04/09 05:26:23;;;;;;;8.52;5.50;;;;;;;;;;5071577;28;20037;-83
2023/04/09 05:28:53;;;;;;;7.97;5.80;;;;;;;;;;5066325;28;20044;-82
2023/04/09 05:31:21;;;;;;;7.63;5.50;;;;;;;;;;5068635;28;20039;-82
2023/04/09 05:33:54;;;;;;;9.27;6.90;;;;;;;;;;5071595;28;20082;-83
2023/04/09 05:36:26;;;;;;;9.00;6.90;;;;;;;;;;5072212;28;20119;-83
2023/04/09 05:38:51;;;;;;;8.63;6.30;;;;;;;;;;5072502;28;20639;-83
2023/04/09 05:41:17;;;;;;;7.82;5.93;;;;;;;;;;5072763;28;20044;-82
2023/04/09 05:44:08;;;;;;;11.25;7.22;;;;;;;;;;5056723;28;20425;-83
2023/04/09 05:46:37;;;;;;;8.70;6.10;;;;;;;;;;5089033;28;20039;-82
2023/04/09 05:49:03;;;;;;;8.63;6.38;;;;;;;;;;5071814;28;20066;-82
2023/04/09 05:51:31;;;;;;;10.15;7.05;;;;;;;;;;5085855;28;20025;-82
2023/04/09 05:53:58;;;;;;;10.73;7.10;;;;;;;;;;5071797;28;20032;-82
2023/04/09 05:56:24;;;;;;;10.50;6.72;;;;;;;;;;5088746;28;20068;-83
2023/04/09 05:58:53;;;;;;;9.00;6.28;;;;;;;;;;5071737;28;20090;-82
2023/04/09 06:01:19;;;;;;;8.77;6.00;;;;;;;;;;5086206;28;20029;-82
2023/04/09 06:03:45;;;;;;;9.52;5.70;;;;;;;;;;5071838;28;20028;-82
2023/04/09 06:06:12;;;;;;;8.73;6.05;;;;;;;;;;5070290;28;20430;-83
2023/04/09 06:08:37;;;;;;;8.13;5.93;;;;;;;;;;5071994;28;20029;-82
2023/04/09 06:11:03;;;;;;;10.80;7.05;;;;;;;;;;5073182;28;20048;-82
2023/04/09 06:13:29;;;;;;;9.93;6.50;;;;;;;;;;5072630;28;20505;-83
2023/04/09 06:15:55;;;;;;;8.95;6.32;;;;;;;;;;5070338;28;20114;-83
2023/04/09 06:18:20;;;;;;;7.97;5.90;;;;;;;;;;5072456;28;20059;-82
2023/04/09 06:20:46;;;;;;;9.70;6.47;;;;;;;;;;5072845;28;20028;-83
2023/04/09 06:23:11;;;;;;;8.75;5.60;;;;;;;;;;5072711;28;20063;-83
2023/04/09 06:25:37;;;;;;;8.10;5.32;;;;;;;;;;5072737;28;20043;-83
2023/04/09 06:28:03;;;;;;;8.52;6.00;;;;;;;;;;5086447;28;20414;-83
2023/04/09 06:30:30;;;;;;;12.82;6.00;;;;;;;;;;5070866;28;20083;-83
2023/04/09 06:32:56;;;;;;;12.43;6.88;;;;;;;;;;5071124;28;20093;-82
2023/04/09 06:35:21;;;;;;;10.95;6.68;;;;;;;;;;5072620;28;20036;-82
2023/04/09 06:37:47;;;;;;;12.68;7.20;;;;;;;;;;5071122;28;20028;-82
2023/04/09 06:40:13;;;;;;;11.43;7.07;;;;;;;;;;5072493;28;20036;-82
2023/04/09 06:42:38;;;;;;;9.20;5.90;;;;;;;;;;5079920;28;20091;-82
2023/04/09 06:45:13;;;;;;;9.85;6.25;;;;;;;;;;5080524;28;20101;-83
2023/04/09 06:47:39;;;;;;;9.50;6.60;;;;;;;;;;5083517;28;20064;-82
2023/04/09 06:50:04;;;;;;;10.27;6.88;;;;;;;;;;5066400;28;20041;-83
2023/04/09 06:52:30;;;;;;;11.77;6.80;;;;;;;;;;5083820;28;20116;-83
2023/04/09 06:54:55;;;;;;;9.70;6.65;;;;;;;;;;5080810;28;20170;-83
2023/04/09 06:57:21;;;;;;;9.05;6.45;;;;;;;;;;5076759;28;20029;-82
2023/04/09 06:59:46;;;;;;;10.10;6.57;;;;;;;;;;5076892;28;20067;-83
2023/04/09 07:02:12;;;;;;;11.32;6.10;;;;;;;;;;5074462;28;20062;-82
2023/04/09 07:04:37;;;;;;;10.55;6.90;;;;;;;;;;5076739;28;20060;-83
2023/04/09 07:07:03;;;;;;;9.48;6.38;;;;;;;;;;5076644;28;20398;-83
2023/04/09 07:09:29;;;;;;;9.77;6.68;;;;;;;;;;5076025;28;20040;-83
2023/04/09 07:11:54;;;;;;;9.27;6.38;;;;;;;;;;5076445;28;20039;-84
2023/04/09 07:14:20;;;;;;;11.55;7.63;;;;;;;;;;5076274;28;20033;-83
2023/04/09 07:16:45;;;;;;;16.67;9.95;;;;;;;;;;5075517;28;20029;-83
2023/04/09 07:19:11;;;;;;;10.38;6.90;;;;;;;;;;5074929;28;20472;-83
2023/04/09 07:21:37;;;;;;;10.02;6.70;;;;;;;;;;5076236;28;20116;-83
2023/04/09 07:24:02;;;;;;;10.93;7.10;;;;;;;;;;5075428;28;20084;-82
2023/04/09 07:26:29;;;;;;;13.88;7.70;;;;;;;;;;5075977;28;20044;-83
2023/04/09 07:28:55;;;;;;;11.70;7.55;;;;;;;;;;5073723;28;20044;-83
2023/04/09 07:31:21;;;;;;;10.07;6.65;;;;;;;;;;5076186;28;20414;-82
2023/04/09 07:33:46;;;;;;;10.98;7.05;;;;;;;;;;5075721;28;20032;-83
2023/04/09 07:36:12;;;;;;;11.18;7.28;;;;;;;;;;5074594;28;20041;-83
2023/04/09 07:38:37;;;;;;;9.77;6.50;;;;;;;;;;5075658;28;20139;-83
2023/04/09 07:41:03;;;;;;;10.68;6.55;;;;;;;;;;5075583;28;20028;-83
2023/04/09 07:43:28;;;;;;;11.48;7.22;;;;;;;;;;5075647;28;20065;-83
2023/04/09 07:45:54;;;;;;;9.93;6.38;;;;;;;;;;5077831;28;20044;-82
2023/04/09 07:48:20;;;;;;;9.98;6.63;;;;;;;;;;5077288;28;20036;-83
2023/04/09 07:50:45;;;;;;;12.18;7.80;;;;;;;;;;5044707;28;20095;-83
2023/04/09 07:53:11;;;;;;;12.45;7.00;;;;;;;;;;5076553;28;20115;-83
2023/04/09 07:55:36;;;;;;;10.05;6.90;;;;;;;;;;5076159;28;20504;-83
2023/04/09 07:58:03;;;;;;;10.07;6.68;;;;;;;;;;5058180;28;20024;-82
2023/04/09 08:00:29;;;;;;;9.98;6.53;;;;;;;;;;5073748;28;20037;-83
2023/04/09 08:02:54;;;;;;;10.02;6.95;;;;;;;;;;5075865;28;20093;-83
2023/04/09 08:05:20;;;;;;;8.98;6.30;;;;;;;;;;5078422;28;20094;-82
2023/04/09 08:07:45;;;;;;;9.07;6.18;;;;;;;;;;5077598;28;20044;-84
2023/04/09 08:10:13;;;;;;;9.82;6.47;;;;;;;;;;5079952;28;20367;-82
2023/04/09 08:12:40;;;;;;;7.75;6.00;;;;;;;;;;5079018;28;20102;-83
2023/04/09 08:15:06;;;;;;;9.57;6.65;;;;;;;;;;5079237;28;20032;-82
2023/04/09 08:17:32;;;;;;;9.13;6.55;;;;;;;;;;5080268;28;20020;-83
2023/04/09 08:19:57;;;;;;;8.35;6.05;;;;;;;;;;5080373;28;20032;-82
2023/04/09 08:22:23;;;;;;;8.73;5.97;;;;;;;;;;5077310;28;20406;-83
2023/04/09 08:24:52;;;;;;;8.05;5.40;;;;;;;;;;5079239;28;20052;-83
2023/04/09 08:27:18;;;;;;;8.57;5.97;;;;;;;;;;5078565;28;20036;-82
2023/04/09 08:29:43;;;;;;;9.75;6.55;;;;;;;;;;5077115;28;20052;-82
2023/04/09 08:32:09;;;;;;;8.57;5.80;;;;;;;;;;5078557;28;20111;-82
2023/04/09 08:34:34;;;;;;;9.25;6.18;;;;;;;;;;5078262;28;20115;-82
2023/04/09 08:37:00;;;;;;;10.18;6.22;;;;;;;;;;5077021;28;20037;-83
2023/04/09 08:39:26;;;;;;;10.20;6.05;;;;;;;;;;5076097;28;20033;-83
2023/04/09 08:41:51;;;;;;;10.57;7.00;;;;;;;;;;5079097;28;20047;-83
2023/04/09 08:44:17;;;;;;;11.13;7.40;;;;;;;;;;5077863;28;20111;-83
2023/04/09 08:46:43;;;;;;;11.50;7.05;;;;;;;;;;5077969;28;20036;-83
2023/04/09 08:49:09;;;;;;;15.27;9.23;;;;;;;;;;5076149;28;20045;-83
2023/04/09 08:51:35;;;;;;;12.80;8.52;;;;;;;;;;5077957;28;20036;-82
2023/04/09 08:54:01;;;;;;;13.02;8.27;;;;;;;;;;5078087;28;20036;-82
2023/04/09 08:56:27;;;;;;;12.27;8.35;;;;;;;;;;5090662;28;20042;-83
2023/04/09 08:58:54;;;;;;;11.98;8.43;;;;;;;;;;5077452;28;20021;-83
2023/04/09 09:01:28;;;;;;;15.27;9.25;;;;;;;;;;5076047;28;20037;-82
2023/04/09 09:04:05;;;;;;;15.00;9.38;;;;;;;;;;5075576;28;20040;-82
2023/04/09 09:06:35;;;;;;;13.95;9.48;;;;;;;;;;5075605;28;20086;-83
2023/04/09 09:09:17;;;;;;;13.82;9.45;;;;;;;;;;5089330;28;20037;-83
2023/04/09 09:11:49;;;;;;;13.93;9.13;;;;;;;;;;5074552;28;20032;-83
2023/04/09 09:14:19;;;;;;;16.05;10.15;;;;;;;;;;5077095;28;20047;-83
2023/04/09 09:16:56;;;;;;;16.45;10.45;;;;;;;;;;5077884;28;20032;-83
2023/04/09 09:19:24;;;;;;;13.10;8.75;;;;;;;;;;5076846;28;20041;-83
2023/04/09 09:21:56;;;;;;;13.77;9.30;;;;;;;;;;5077574;28;20033;-83
2023/04/09 09:24:22;;;;;;;13.43;9.38;;;;;;;;;;5077445;28;20111;-83
2023/04/09 09:26:48;;;;;;;12.80;8.88;;;;;;;;;;5076772;28;20093;-83
2023/04/09 09:29:13;;;;;;;13.93;8.52;;;;;;;;;;5074365;28;20029;-83
2023/04/09 09:31:48;;;;;;;12.40;8.40;;;;;;;;;;5076854;28;20036;-83
2023/04/09 09:34:15;;;;;;;10.63;7.63;;;;;;;;;;5075281;28;20115;-83
2023/04/09 09:36:40;;;;;;;10.35;7.55;;;;;;;;;;5077991;28;20033;-83
2023/04/09 09:39:09;;;;;;;12.80;8.32;;;;;;;;;;5077099;28;20032;-83
2023/04/09 09:41:35;;;;;;;11.18;8.07;;;;;;;;;;5075727;28;20036;-82
2023/04/09 09:44:03;;;;;;;11.32;7.93;;;;;;;;;;5077155;28;20043;-83
2023/04/09 09:46:32;;;;;;;10.60;8.00;;;;;;;;;;5075386;28;20127;-82
2023/04/09 09:48:58;;;;;;;10.98;8.15;;;;;;;;;;5076772;28;20163;-83
2023/04/09 09:51:28;;;;;;;11.27;8.30;;;;;;;;;;5077536;28;20478;-83
2023/04/09 09:53:56;;;;;;;12.40;8.65;;;;;;;;;;5077099;28;20040;-82
2023/04/09 09:56:42;;;;;;;11.93;8.65;;;;;;;;;;5075932;28;20123;-83
2023/04/09 09:59:16;;;;;;;12.48;7.90;;;;;;;;;;5075609;28;20115;-82
2023/04/09 10:01:43;;;;;;;16.42;8.00;;;;;;;;;;5076833;28;20048;-83
2023/04/09 10:04:13;;;;;;;13.63;9.27;;;;;;;;;;5076712;28;20036;-83
2023/04/09 10:06:43;;;;;;;12.93;8.75;;;;;;;;;;5076681;28;20033;-84
2023/04/09 10:09:09;;;;;;;16.15;9.50;;;;;;;;;;5076170;28;20039;-82
2023/04/09 10:11:36;;;;;;;14.05;9.60;;;;;;;;;;5077243;28;20068;-83
2023/04/09 10:14:03;;;;;;;14.93;10.27;;;;;;;;;;5074240;28;20033;-82
2023/04/09 10:16:30;;;;;;;14.73;9.95;;;;;;;;;;5077043;28;20506;-83
2023/04/09 10:18:56;;;;;;;13.55;9.45;;;;;;;;;;5076044;28;20046;-83
2023/04/09 10:21:40;;;;;;;13.75;9.85;;;;;;;;;;5081269;28;20052;-83
2023/04/09 10:24:07;;;;;;;14.00;9.57;;;;;;;;;;5078864;28;20056;-83
2023/04/09 10:26:34;;;;;;;16.20;10.20;;;;;;;;;;5080178;28;20040;-83
2023/04/09 10:29:08;;;;;;;16.00;10.45;;;;;;;;;;5079902;28;20056;-83
2023/04/09 10:32:05;;;;;;;15.30;9.77;;;;;;;;;;5079360;28;20056;-83
2023/04/09 10:34:41;;;;;;;13.02;9.23;;;;;;;;;;5079588;28;20123;-83
2023/04/09 10:37:24;;;;;;;12.75;9.10;;;;;;;;;;5075229;28;20036;-84
2023/04/09 10:39:51;;;;;;;13.07;9.23;;;;;;;;;;5094646;28;20053;-84
2023/04/09 10:42:31;;;;;;;14.73;9.13;;;;;;;;;;5080758;28;20506;-84
2023/04/09 10:45:03;;;;;;;13.68;9.43;;;;;;;;;;5077856;28;20036;-83
2023/04/09 10:47:34;;;;;;;15.25;10.50;;;;;;;;;;5076622;28;20032;-84
2023/04/09 10:50:24;;;;;;;16.30;11.43;;;;;;;;;;5081691;28;20032;-83
2023/04/09 10:52:56;;;;;;;14.60;10.35;;;;;;;;;;5079408;28;20032;-84
2023/04/09 10:55:41;;;;;;;15.82;10.27;;;;;;;;;;5080684;28;20501;-84
2023/04/09 10:58:08;;;;;;;11.90;8.27;;;;;;;;;;5079208;28;20039;-83
2023/04/09 11:00:45;;;;;;;14.38;10.05;;;;;;;;;;5078103;28;20155;-84
2023/04/09 11:03:30;;;;;;;14.43;9.40;;;;;;;;;;5080047;28;20064;-83
2023/04/09 11:06:10;;;;;;;14.27;9.63;;;;;;;;;;5078761;28;20082;-83
2023/04/09 11:08:37;;;;;;;14.68;9.45;;;;;;;;;;5078292;28;20049;-83
2023/04/09 11:11:03;;;;;;;15.48;10.15;;;;;;;;;;5080778;28;20674;-84
2023/04/09 11:13:30;;;;;;;15.48;10.20;;;;;;;;;;5080110;28;20036;-83
2023/04/09 11:15:56;;;;;;;14.05;9.65;;;;;;;;;;5085454;28;20070;-84
2023/04/09 11:18:24;;;;;;;14.20;9.20;;;;;;;;;;5081423;28;20033;-84
2023/04/09 11:20:56;;;;;;;13.48;9.27;;;;;;;;;;5080170;28;20098;-84
2023/04/09 11:23:23;;;;;;;14.70;9.93;;;;;;;;;;5080205;28;20040;-84
2023/04/09 11:25:49;;;;;;;15.68;10.68;;;;;;;;;;5084316;28;20043;-84
2023/04/09 11:28:16;;;;;;;15.05;10.50;;;;;;;;;;5100729;28;20078;-83
2023/04/09 11:30:42;;;;;;;15.02;9.73;;;;;;;;;;5099848;28;20056;-83
2023/04/09 11:33:08;;;;;;;12.98;8.60;;;;;;;;;;5083369;28;20033;-83
2023/04/09 11:35:35;;;;;;;12.93;8.80;;;;;;;;;;5084612;28;20399;-83
2023/04/09 11:38:05;;;;;;;12.75;8.73;;;;;;;;;;5083663;28;20119;-83
2023/04/09 11:40:31;;;;;;;13.38;9.38;;;;;;;;;;5084711;28;20811;-83
2023/04/09 11:42:56;;;;;;;14.07;9.00;;;;;;;;;;5098869;28;20025;-84
2023/04/09 11:45:26;;;;;;;14.68;9.68;;;;;;;;;;5080453;28;20033;-83
2023/04/09 11:47:52;;;;;;;14.98;10.02;;;;;;;;;;5077921;28;20044;-84
2023/04/09 11:50:19;;;;;;;15.60;10.75;;;;;;;;;;5078331;28;20406;-84
2023/04/09 11:52:45;;;;;;;15.27;9.68;;;;;;;;;;5084765;28;20043;-84
2023/04/09 11:55:11;;;;;;;16.63;10.60;;;;;;;;;;5083710;28;20063;-84
2023/04/09 11:57:45;;;;;;;14.85;9.45;;;;;;;;;;5084801;28;20029;-84
2023/04/09 12:00:13;;;;;;;15.90;10.43;;;;;;;;;;5081373;28;20039;-84
2023/04/09 12:02:46;;;;;;;16.27;11.02;;;;;;;;;;5072033;28;20035;-85
2023/04/09 12:05:21;;;;;;;15.65;9.82;;;;;;;;;;5079348;28;20046;-84
2023/04/09 12:07:46;;;;;;;16.85;10.38;;;;;;;;;;5078190;28;20140;-84
2023/04/09 12:10:12;;;;;;;14.00;10.10;;;;;;;;;;5078452;28;20447;-83
2023/04/09 12:12:47;;;;;;;13.65;9.20;;;;;;;;;;5079338;28;20036;-84
2023/04/09 12:15:23;;;;;;;13.70;8.85;;;;;;;;;;5079564;28;20068;-83
2023/04/09 12:17:50;;;;;;;13.00;8.93;;;;;;;;;;5078050;28;20039;-83
2023/04/09 12:20:28;;;;;;;15.07;9.60;;;;;;;;;;5075874;28;20040;-83
2023/04/09 12:22:54;;;;;;;16.17;10.55;;;;;;;;;;5079434;28;20543;-83
2023/04/09 12:25:20;;;;;;;15.75;10.10;;;;;;;;;;5079688;28;20032;-83
2023/04/09 12:27:45;;;;;;;18.60;11.57;;;;;;;;;;5079346;28;20067;-83
2023/04/09 12:30:11;;;;;;;17.67;11.07;;;;;;;;;;5078179;28;20037;-83
2023/04/09 12:32:37;;;;;;;15.55;9.82;;;;;;;;;;5093548;28;20051;-83
2023/04/09 12:35:03;;;;;;;13.70;8.93;;;;;;;;;;5079687;28;20040;-83
2023/04/09 12:37:29;;;;;;;13.02;8.88;;;;;;;;;;5076360;28;20039;-83
2023/04/09 12:39:55;;;;;;;12.98;9.35;;;;;;;;;;5076979;28;20127;-83
2023/04/09 12:42:20;;;;;;;15.95;9.43;;;;;;;;;;5060570;28;20119;-82
2023/04/09 12:44:46;;;;;;;14.20;9.25;;;;;;;;;;5078170;28;20032;-83
2023/04/09 12:47:12;;;;;;;13.77;8.93;;;;;;;;;;5077493;28;20032;-83
2023/04/09 12:49:38;;;;;;;24.67;15.50;;;;;;;;;;5078468;28;20040;-84
2023/04/09 12:52:03;;;;;;;14.55;9.80;;;;;;;;;;5079152;28;20033;-83
2023/04/09 12:54:29;;;;;;;14.27;9.65;;;;;;;;;;5078110;28;20485;-83
2023/04/09 12:56:54;;;;;;;12.98;9.02;;;;;;;;;;5075668;28;20100;-83
2023/04/09 12:59:20;;;;;;;14.02;9.60;;;;;;;;;;5078044;28;20052;-83
2023/04/09 13:01:45;;;;;;;13.95;9.75;;;;;;;;;;5077140;28;20040;-82
2023/04/09 13:04:11;;;;;;;14.90;9.70;;;;;;;;;;5074908;28;20119;-82
2023/04/09 13:06:36;;;;;;;14.07;9.85;;;;;;;;;;5078506;28;20494;-83
2023/04/09 13:09:02;;;;;;;14.25;9.15;;;;;;;;;;5077254;28;20038;-83
2023/04/09 13:11:27;;;;;;;14.13;8.95;;;;;;;;;;5092416;28;20494;-84
2023/04/09 13:13:53;;;;;;;13.77;9.15;;;;;;;;;;5077605;28;20036;-83
2023/04/09 13:16:18;;;;;;;14.30;9.80;;;;;;;;;;5078654;28;20928;-83
2023/04/09 13:18:44;;;;;;;15.40;9.57;;;;;;;;;;5077216;28;20078;-83
2023/04/09 13:21:09;;;;;;;14.25;9.55;;;;;;;;;;5076992;28;20044;-83
2023/04/09 13:23:35;;;;;;;15.23;9.45;;;;;;;;;;5078388;28;20037;-84
2023/04/09 13:26:00;;;;;;;13.00;9.45;;;;;;;;;;5078143;28;20533;-84
2023/04/09 13:28:26;;;;;;;13.88;9.63;;;;;;;;;;5076333;28;20346;-83
2023/04/09 13:30:51;;;;;;;14.13;9.27;;;;;;;;;;5049276;28;20036;-84
2023/04/09 13:33:17;;;;;;;14.32;9.35;;;;;;;;;;5078004;28;20047;-83
2023/04/09 13:35:42;;;;;;;13.98;10.23;;;;;;;;;;5077865;28;20036;-83
2023/04/09 13:38:08;;;;;;;15.90;10.07;;;;;;;;;;5078295;28;20040;-83
2023/04/09 13:40:34;;;;;;;16.83;10.90;;;;;;;;;;5078705;28;20028;-84
2023/04/09 13:42:59;;;;;;;16.70;10.75;;;;;;;;;;5077808;28;20047;-83
2023/04/09 13:45:25;;;;;;;18.25;10.80;;;;;;;;;;5077775;28;20093;-84
2023/04/09 13:47:50;;;;;;;15.00;10.05;;;;;;;;;;5076548;28;20402;-83
2023/04/09 13:50:16;;;;;;;15.65;9.93;;;;;;;;;;5091248;28;20029;-83
2023/04/09 13:52:41;;;;;;;14.38;9.57;;;;;;;;;;5077755;28;20414;-83
2023/04/09 13:55:08;;;;;;;15.23;10.13;;;;;;;;;;5081089;28;20048;-83
2023/04/09 13:57:33;;;;;;;14.38;10.05;;;;;;;;;;5081814;28;20106;-83
2023/04/09 14:00:02;;;;;;;16.20;9.88;;;;;;;;;;5096832;28;20441;-83
2023/04/09 14:02:30;;;;;;;16.20;10.13;;;;;;;;;;5081515;28;20471;-83
2023/04/09 14:04:57;;;;;;;16.02;10.27;;;;;;;;;;5101450;22;20096;-86
2023/04/09 14:07:22;;;;;;;16.88;10.40;;;;;;;;;;5071040;28;20076;-83
2023/04/09 14:09:49;;;;;;;16.80;10.68;;;;;;;;;;5069395;28;20048;-85
2023/04/09 14:12:15;;;;;;;16.40;10.65;;;;;;;;;;5057220;28;20037;-83
2023/04/09 14:14:40;;;;;;;14.85;10.05;;;;;;;;;;5056305;28;20050;-86
2023/04/09 14:17:06;;;;;;;13.68;9.40;;;;;;;;;;5077666;28;20040;-87
2023/04/09 14:19:31;;;;;;;13.93;9.60;;;;;;;;;;5076316;28;20131;-85
2023/04/09 14:21:57;;;;;;;15.15;9.85;;;;;;;;;;5076748;28;20040;-83
2023/04/09 14:24:22;;;;;;;15.43;9.75;;;;;;;;;;5076542;28;20032;-85
2023/04/09 14:26:50;;;;;;;15.07;10.10;;;;;;;;;;5078490;28;20036;-83
2023/04/09 14:29:16;;;;;;;14.52;9.40;;;;;;;;;;5077037;28;20402;-85
2023/04/09 14:31:41;;;;;;;12.45;8.57;;;;;;;;;;5078903;28;20477;-83
2023/04/09 14:34:08;;;;;;;13.52;8.90;;;;;;;;;;5078977;28;20040;-84
2023/04/09 14:36:33;;;;;;;14.00;9.23;;;;;;;;;;5076535;28;20441;-85
2023/04/09 14:38:59;;;;;;;15.05;9.35;;;;;;;;;;5078436;28;20043;-88
2023/04/09 14:41:25;;;;;;;14.52;9.50;;;;;;;;;;5080281;28;20043;-86
2023/04/09 14:43:50;;;;;;;13.38;9.10;;;;;;;;;;5075704;28;20036;-85